sensor_id;sensor_type;location;lat;lon;timestamp;pressure;altitude;pressure_sealevel;temperature;humidity
6349;BME280;3207;42.648;23.406;2023-10-19T00:16:44;99333.56;;;14.47;nan
6349;BME280;3207;42.648;23.406;2023-10-19T02:31:25;99203.56;;;14.32;nan
6349;BME280;3207;42.648;23.406;2023-10-19T03:13:29;99147.91;;;14.10;nan
6349;BME280;3207;42.648;23.406;2023-10-19T04:23:20;99046.03;;;13.70;nan
6349;BME280;3207;42.648;23.406;2023-10-19T05:54:22;98988.53;;;15.81;nan
6349;BME280;3207;42.648;23.406;2023-10-19T05:56:49;98969.88;;;16.30;nan
6349;BME280;3207;42.648;23.406;2023-10-19T06:04:12;98967.34;;;18.16;nan
6349;BME280;3207;42.648;23.406;2023-10-19T06:11:35;98988.28;;;20.42;nan
6349;BME280;3207;42.648;23.406;2023-10-19T06:14:07;98974.91;;;21.42;nan
6349;BME280;3207;42.648;23.406;2023-10-19T06:16:35;99000.13;;;22.17;nan
6349;BME280;3207;42.648;23.406;2023-10-19T06:19:02;98970.66;;;22.88;nan
6349;BME280;3207;42.648;23.406;2023-10-19T06:21:29;98967.97;;;23.63;nan
6349;BME280;3207;42.648;23.406;2023-10-19T06:23:57;99009.75;;;23.76;nan
6349;BME280;3207;42.648;23.406;2023-10-19T06:26:24;98980.16;;;23.34;nan
6349;BME280;3207;42.648;23.406;2023-10-19T06:28:52;98976.16;;;23.68;nan
6349;BME280;3207;42.648;23.406;2023-10-19T06:31:23;98970.78;;;24.41;nan
6349;BME280;3207;42.648;23.406;2023-10-19T06:33:51;99021.16;;;25.15;nan
6349;BME280;3207;42.648;23.406;2023-10-19T06:36:18;98972.63;;;26.45;nan
6349;BME280;3207;42.648;23.406;2023-10-19T06:38:45;98989.97;;;27.00;nan
6349;BME280;3207;42.648;23.406;2023-10-19T06:41:15;98977.00;;;26.51;nan
6349;BME280;3207;42.648;23.406;2023-10-19T06:43:43;98939.63;;;25.65;nan
6349;BME280;3207;42.648;23.406;2023-10-19T06:46:12;98953.22;;;25.16;nan
6349;BME280;3207;42.648;23.406;2023-10-19T06:56:01;98994.72;;;26.12;nan
6349;BME280;3207;42.648;23.406;2023-10-19T06:58:29;98969.06;;;25.53;nan
6349;BME280;3207;42.648;23.406;2023-10-19T07:00:56;98964.16;;;24.73;nan
6349;BME280;3207;42.648;23.406;2023-10-19T07:03:26;98933.00;;;24.67;nan
6349;BME280;3207;42.648;23.406;2023-10-19T07:05:54;98953.22;;;25.16;nan
6349;BME280;3207;42.648;23.406;2023-10-19T07:08:22;98959.88;;;25.37;nan
6349;BME280;3207;42.648;23.406;2023-10-19T07:10:49;98970.34;;;25.50;nan
6349;BME280;3207;42.648;23.406;2023-10-19T07:13:16;98978.25;;;25.69;nan
6349;BME280;3207;42.648;23.406;2023-10-19T07:15:45;98965.38;;;27.75;nan
6349;BME280;3207;42.648;23.406;2023-10-19T07:18:12;98982.81;;;28.86;nan
6349;BME280;3207;42.648;23.406;2023-10-19T07:20:40;98970.06;;;29.08;nan
6349;BME280;3207;42.648;23.406;2023-10-19T07:23:08;98988.72;;;30.67;nan
6349;BME280;3207;42.648;23.406;2023-10-19T07:25:44;98961.75;;;30.92;nan
6349;BME280;3207;42.648;23.406;2023-10-19T07:28:14;98965.50;;;30.66;nan
6349;BME280;3207;42.648;23.406;2023-10-19T07:30:41;98956.69;;;30.03;nan
6349;BME280;3207;42.648;23.406;2023-10-19T07:33:09;98949.50;;;29.66;nan
6349;BME280;3207;42.648;23.406;2023-10-19T07:38:05;98956.47;;;28.39;nan
6349;BME280;3207;42.648;23.406;2023-10-19T07:40:33;98930.50;;;27.41;nan
6349;BME280;3207;42.648;23.406;2023-10-19T07:45:27;98933.09;;;25.84;nan
6349;BME280;3207;42.648;23.406;2023-10-19T07:47:54;98915.53;;;25.30;nan
6349;BME280;3207;42.648;23.406;2023-10-19T07:50:21;98925.28;;;24.89;nan
6349;BME280;3207;42.648;23.406;2023-10-19T07:52:49;98918.00;;;24.55;nan
6349;BME280;3207;42.648;23.406;2023-10-19T07:55:19;98940.31;;;24.12;nan
6349;BME280;3207;42.648;23.406;2023-10-19T08:00:16;98897.31;;;23.29;nan
6349;BME280;3207;42.648;23.406;2023-10-19T08:02:43;98891.13;;;23.10;nan
6349;BME280;3207;42.648;23.406;2023-10-19T08:05:11;98903.47;;;22.86;nan
6349;BME280;3207;42.648;23.406;2023-10-19T08:07:38;98907.84;;;22.68;nan
6349;BME280;3207;42.648;23.406;2023-10-19T08:12:37;98895.94;;;22.45;nan
6349;BME280;3207;42.648;23.406;2023-10-19T08:15:07;98913.66;;;22.26;nan
6349;BME280;3207;42.648;23.406;2023-10-19T08:34:52;98895.53;;;27.75;nan
6349;BME280;3207;42.648;23.406;2023-10-19T08:37:19;98921.38;;;28.78;nan
6349;BME280;3207;42.648;23.406;2023-10-19T08:39:46;98892.66;;;28.57;nan
6349;BME280;3207;42.648;23.406;2023-10-19T08:42:16;98880.47;;;28.17;nan
6349;BME280;3207;42.648;23.406;2023-10-19T08:44:43;98884.72;;;27.69;nan
6349;BME280;3207;42.648;23.406;2023-10-19T08:47:12;98881.16;;;27.25;nan
6349;BME280;3207;42.648;23.406;2023-10-19T08:49:39;98868.84;;;26.91;nan
6349;BME280;3207;42.648;23.406;2023-10-19T08:52:07;98865.06;;;27.64;nan
6349;BME280;3207;42.648;23.406;2023-10-19T08:54:34;98877.97;;;29.01;nan
6349;BME280;3207;42.648;23.406;2023-10-19T08:57:01;98883.84;;;29.93;nan
6349;BME280;3207;42.648;23.406;2023-10-19T08:59:27;98876.81;;;29.92;nan
6349;BME280;3207;42.648;23.406;2023-10-19T09:02:00;98884.44;;;30.10;nan
6349;BME280;3207;42.648;23.406;2023-10-19T09:04:29;98881.59;;;29.64;nan
6349;BME280;3207;42.648;23.406;2023-10-19T09:06:56;98872.34;;;29.45;nan
6349;BME280;3207;42.648;23.406;2023-10-19T09:09:23;98873.06;;;29.93;nan
6349;BME280;3207;42.648;23.406;2023-10-19T09:11:51;98853.19;;;30.34;nan
6349;BME280;3207;42.648;23.406;2023-10-19T09:14:31;98857.56;;;30.61;nan
6349;BME280;3207;42.648;23.406;2023-10-19T09:16:59;98848.34;;;31.22;nan
6349;BME280;3207;42.648;23.406;2023-10-19T09:19:38;98835.88;;;31.91;nan
6349;BME280;3207;42.648;23.406;2023-10-19T09:22:06;98838.22;;;32.08;nan
6349;BME280;3207;42.648;23.406;2023-10-19T09:24:43;98835.88;;;31.91;nan
6349;BME280;3207;42.648;23.406;2023-10-19T09:27:10;98833.88;;;31.68;nan
6349;BME280;3207;42.648;23.406;2023-10-19T09:29:38;98825.19;;;31.76;nan
6349;BME280;3207;42.648;23.406;2023-10-19T09:32:07;98828.16;;;31.69;nan
6349;BME280;3207;42.648;23.406;2023-10-19T09:34:35;98832.28;;;31.56;nan
6349;BME280;3207;42.648;23.406;2023-10-19T09:37:04;98829.53;;;32.11;nan
6349;BME280;3207;42.648;23.406;2023-10-19T09:39:32;98832.31;;;32.79;nan
6349;BME280;3207;42.648;23.406;2023-10-19T09:42:02;98841.28;;;33.27;nan
6349;BME280;3207;42.648;23.406;2023-10-19T09:44:37;98845.34;;;34.84;nan
6349;BME280;3207;42.648;23.406;2023-10-19T09:47:10;98841.34;;;35.91;nan
6349;BME280;3207;42.648;23.406;2023-10-19T09:49:39;98841.16;;;35.74;nan
6349;BME280;3207;42.648;23.406;2023-10-19T09:52:13;98848.19;;;35.62;nan
6349;BME280;3207;42.648;23.406;2023-10-19T09:54:47;98841.56;;;36.04;nan
6349;BME280;3207;42.648;23.406;2023-10-19T09:57:22;98831.91;;;35.34;nan
6349;BME280;3207;42.648;23.406;2023-10-19T09:59:56;98819.63;;;34.44;nan
6349;BME280;3207;42.648;23.406;2023-10-19T10:02:32;98818.06;;;33.44;nan
6349;BME280;3207;42.648;23.406;2023-10-19T10:04:59;98806.22;;;32.25;nan
6349;BME280;3207;42.648;23.406;2023-10-19T10:07:27;98799.19;;;31.05;nan
6349;BME280;3207;42.648;23.406;2023-10-19T10:09:56;98787.56;;;29.73;nan
6349;BME280;3207;42.648;23.406;2023-10-19T10:12:24;98822.03;;;29.13;nan
6349;BME280;3207;42.648;23.406;2023-10-19T10:14:55;98777.22;;;28.18;nan
6349;BME280;3207;42.648;23.406;2023-10-19T10:17:23;98780.50;;;27.93;nan
6349;BME280;3207;42.648;23.406;2023-10-19T10:19:53;98771.88;;;27.64;nan
6349;BME280;3207;42.648;23.406;2023-10-19T10:22:22;98771.06;;;27.20;nan
6349;BME280;3207;42.648;23.406;2023-10-19T10:27:20;98770.50;;;26.80;nan
6349;BME280;3207;42.648;23.406;2023-10-19T10:29:57;98751.69;;;26.58;nan
6349;BME280;3207;42.648;23.406;2023-10-19T10:32:44;98753.16;;;26.32;nan
6349;BME280;3207;42.648;23.406;2023-10-19T10:38:13;98754.06;;;25.93;nan
6349;BME280;3207;42.648;23.406;2023-10-19T10:43:11;98744.22;;;25.53;nan
6349;BME280;3207;42.648;23.406;2023-10-19T10:45:38;98725.81;;;25.28;nan
6349;BME280;3207;42.648;23.406;2023-10-19T10:48:13;98753.38;;;25.29;nan
6349;BME280;3207;42.648;23.406;2023-10-19T10:50:41;98725.94;;;25.22;nan
6349;BME280;3207;42.648;23.406;2023-10-19T10:53:07;98719.88;;;25.26;nan
6349;BME280;3207;42.648;23.406;2023-10-19T10:55:37;98717.88;;;25.33;nan
6349;BME280;3207;42.648;23.406;2023-10-19T11:00:32;98709.00;;;25.44;nan
6349;BME280;3207;42.648;23.406;2023-10-19T11:03:01;98717.13;;;25.49;nan
6349;BME280;3207;42.648;23.406;2023-10-19T11:05:29;98706.25;;;25.39;nan
6349;BME280;3207;42.648;23.406;2023-10-19T11:08:05;98694.06;;;25.32;nan
6349;BME280;3207;42.648;23.406;2023-10-19T11:10:33;98704.13;;;25.41;nan
6349;BME280;3207;42.648;23.406;2023-10-19T11:13:01;98701.34;;;25.36;nan
6349;BME280;3207;42.648;23.406;2023-10-19T11:15:30;98687.19;;;25.24;nan
6349;BME280;3207;42.648;23.406;2023-10-19T11:17:57;98686.88;;;25.21;nan
6349;BME280;3207;42.648;23.406;2023-10-19T11:22:53;98657.69;;;24.79;nan
6349;BME280;3207;42.648;23.406;2023-10-19T11:25:24;98661.25;;;24.85;nan
6349;BME280;3207;42.648;23.406;2023-10-19T11:27:54;98667.75;;;25.00;nan
6349;BME280;3207;42.648;23.406;2023-10-19T11:30:24;98668.88;;;25.16;nan
6349;BME280;3207;42.648;23.406;2023-10-19T11:32:53;98650.56;;;25.25;nan
6349;BME280;3207;42.648;23.406;2023-10-19T11:35:24;98646.03;;;25.25;nan
6349;BME280;3207;42.648;23.406;2023-10-19T11:37:52;98649.09;;;25.17;nan
6349;BME280;3207;42.648;23.406;2023-10-19T11:40:20;98638.75;;;25.21;nan
6349;BME280;3207;42.648;23.406;2023-10-19T11:42:47;98646.50;;;25.22;nan
6349;BME280;3207;42.648;23.406;2023-10-19T11:45:14;98660.03;;;25.15;nan
6349;BME280;3207;42.648;23.406;2023-10-19T11:50:11;98670.66;;;25.10;nan
6349;BME280;3207;42.648;23.406;2023-10-19T11:52:40;98633.03;;;25.17;nan
6349;BME280;3207;42.648;23.406;2023-10-19T11:55:07;98621.38;;;25.23;nan
6349;BME280;3207;42.648;23.406;2023-10-19T11:57:35;98616.38;;;25.27;nan
6349;BME280;3207;42.648;23.406;2023-10-19T12:00:02;98621.38;;;25.23;nan
6349;BME280;3207;42.648;23.406;2023-10-19T12:02:35;98617.66;;;25.24;nan
6349;BME280;3207;42.648;23.406;2023-10-19T12:05:04;98611.19;;;25.20;nan
6349;BME280;3207;42.648;23.406;2023-10-19T12:12:31;98594.88;;;24.93;nan
6349;BME280;3207;42.648;23.406;2023-10-19T12:14:58;98599.88;;;24.90;nan
6349;BME280;3207;42.648;23.406;2023-10-19T12:17:25;98630.34;;;24.89;nan
6349;BME280;3207;42.648;23.406;2023-10-19T12:19:53;98586.25;;;24.91;nan
6349;BME280;3207;42.648;23.406;2023-10-19T12:22:20;98601.41;;;24.86;nan
6349;BME280;3207;42.648;23.406;2023-10-19T12:24:49;98591.91;;;24.78;nan
6349;BME280;3207;42.648;23.406;2023-10-19T12:27:16;98593.22;;;24.64;nan
6349;BME280;3207;42.648;23.406;2023-10-19T12:34:40;98585.81;;;24.54;nan
6349;BME280;3207;42.648;23.406;2023-10-19T12:37:07;98595.47;;;24.43;nan
6349;BME280;3207;42.648;23.406;2023-10-19T12:39:36;98576.53;;;24.45;nan
6349;BME280;3207;42.648;23.406;2023-10-19T12:42:09;98573.09;;;24.33;nan
6349;BME280;3207;42.648;23.406;2023-10-19T12:44:37;98580.16;;;24.39;nan
6349;BME280;3207;42.648;23.406;2023-10-19T12:47:07;98600.25;;;24.30;nan
6349;BME280;3207;42.648;23.406;2023-10-19T12:49:36;98576.59;;;24.22;nan
6349;BME280;3207;42.648;23.406;2023-10-19T12:52:03;98613.13;;;24.21;nan
6349;BME280;3207;42.648;23.406;2023-10-19T12:54:32;98561.22;;;24.29;nan
6349;BME280;3207;42.648;23.406;2023-10-19T12:56:58;98564.94;;;24.28;nan
6349;BME280;3207;42.648;23.406;2023-10-19T12:59:26;98557.28;;;24.20;nan
6349;BME280;3207;42.648;23.406;2023-10-19T13:01:53;98559.06;;;24.26;nan
6349;BME280;3207;42.648;23.406;2023-10-19T13:04:23;98556.84;;;24.23;nan
6349;BME280;3207;42.648;23.406;2023-10-19T13:06:50;98559.59;;;24.28;nan
6349;BME280;3207;42.648;23.406;2023-10-19T13:09:17;98550.53;;;24.29;nan
6349;BME280;3207;42.648;23.406;2023-10-19T13:11:48;98550.09;;;24.32;nan
6349;BME280;3207;42.648;23.406;2023-10-19T13:14:17;98564.13;;;24.39;nan
6349;BME280;3207;42.648;23.406;2023-10-19T13:16:45;98554.00;;;24.41;nan
6349;BME280;3207;42.648;23.406;2023-10-19T13:19:15;98535.06;;;24.42;nan
6349;BME280;3207;42.648;23.406;2023-10-19T13:21:46;98545.53;;;24.44;nan
6349;BME280;3207;42.648;23.406;2023-10-19T13:24:13;98544.34;;;24.52;nan
6349;BME280;3207;42.648;23.406;2023-10-19T13:26:40;98545.97;;;24.53;nan
6349;BME280;3207;42.648;23.406;2023-10-19T13:29:11;98537.25;;;24.57;nan
6349;BME280;3207;42.648;23.406;2023-10-19T13:31:38;98538.06;;;24.58;nan
6349;BME280;3207;42.648;23.406;2023-10-19T13:34:06;98526.56;;;24.57;nan
6349;BME280;3207;42.648;23.406;2023-10-19T13:36:35;98517.56;;;24.63;nan
6349;BME280;3207;42.648;23.406;2023-10-19T13:41:31;98522.81;;;24.58;nan
6349;BME280;3207;42.648;23.406;2023-10-19T13:43:58;98536.44;;;24.57;nan
6349;BME280;3207;42.648;23.406;2023-10-19T13:46:25;98533.66;;;24.52;nan
6349;BME280;3207;42.648;23.406;2023-10-19T13:48:52;98527.50;;;24.51;nan
6349;BME280;3207;42.648;23.406;2023-10-19T13:51:21;98551.31;;;24.53;nan
6349;BME280;3207;42.648;23.406;2023-10-19T13:53:48;98553.09;;;24.47;nan
6349;BME280;3207;42.648;23.406;2023-10-19T13:56:15;98527.50;;;24.51;nan
6349;BME280;3207;42.648;23.406;2023-10-19T13:58:42;98526.69;;;24.51;nan
6349;BME280;3207;42.648;23.406;2023-10-19T14:01:12;98514.59;;;24.48;nan
6349;BME280;3207;42.648;23.406;2023-10-19T14:03:39;98521.47;;;24.44;nan
6349;BME280;3207;42.648;23.406;2023-10-19T14:06:11;98514.97;;;24.40;nan
6349;BME280;3207;42.648;23.406;2023-10-19T14:08:40;98505.34;;;24.39;nan
6349;BME280;3207;42.648;23.406;2023-10-19T14:11:07;98503.63;;;24.33;nan
6349;BME280;3207;42.648;23.406;2023-10-19T14:13:34;98488.53;;;24.27;nan
6349;BME280;3207;42.648;23.406;2023-10-19T14:16:05;98501.34;;;24.25;nan
6349;BME280;3207;42.648;23.406;2023-10-19T14:18:33;98519.88;;;24.20;nan
6349;BME280;3207;42.648;23.406;2023-10-19T14:20:59;98494.25;;;24.07;nan
6349;BME280;3207;42.648;23.406;2023-10-19T14:23:28;98496.47;;;23.98;nan
6349;BME280;3207;42.648;23.406;2023-10-19T14:25:56;98491.28;;;23.92;nan
6349;BME280;3207;42.648;23.406;2023-10-19T14:28:23;98494.63;;;23.87;nan
6349;BME280;3207;42.648;23.406;2023-10-19T14:30:49;98500.44;;;23.84;nan
6349;BME280;3207;42.648;23.406;2023-10-19T14:33:16;98495.59;;;23.81;nan
6349;BME280;3207;42.648;23.406;2023-10-19T14:38:11;98493.72;;;23.70;nan
6349;BME280;3207;42.648;23.406;2023-10-19T14:40:39;98527.84;;;23.68;nan
6349;BME280;3207;42.648;23.406;2023-10-19T14:43:11;98484.34;;;23.67;nan
6349;BME280;3207;42.648;23.406;2023-10-19T14:45:40;98478.53;;;23.70;nan
6349;BME280;3207;42.648;23.406;2023-10-19T14:48:07;98476.78;;;23.76;nan
6349;BME280;3207;42.648;23.406;2023-10-19T14:50:36;98482.47;;;23.80;nan
6349;BME280;3207;42.648;23.406;2023-10-19T14:55:30;98488.16;;;23.83;nan
6349;BME280;3207;42.648;23.406;2023-10-19T14:57:57;98472.81;;;23.90;nan
6349;BME280;3207;42.648;23.406;2023-10-19T15:00:26;98476.53;;;23.89;nan
6349;BME280;3207;42.648;23.406;2023-10-19T15:02:59;98475.03;;;23.93;nan
6349;BME280;3207;42.648;23.406;2023-10-19T15:05:28;98476.88;;;23.93;nan
6349;BME280;3207;42.648;23.406;2023-10-19T15:07:55;98482.22;;;23.93;nan
6349;BME280;3207;42.648;23.406;2023-10-19T15:10:24;98470.72;;;23.92;nan
6349;BME280;3207;42.648;23.406;2023-10-19T15:15:18;98467.94;;;23.87;nan
6349;BME280;3207;42.648;23.406;2023-10-19T15:17:47;98464.00;;;23.90;nan
6349;BME280;3207;42.648;23.406;2023-10-19T15:20:16;98451.47;;;23.90;nan
6349;BME280;3207;42.648;23.406;2023-10-19T15:22:44;98458.91;;;23.88;nan
6349;BME280;3207;42.648;23.406;2023-10-19T15:27:39;98457.41;;;23.81;nan
6349;BME280;3207;42.648;23.406;2023-10-19T15:32:34;98466.34;;;23.75;nan
6349;BME280;3207;42.648;23.406;2023-10-19T15:35:03;98476.78;;;23.64;nan
6349;BME280;3207;42.648;23.406;2023-10-19T15:37:30;98451.97;;;23.64;nan
6349;BME280;3207;42.648;23.406;2023-10-19T15:42:24;98442.22;;;23.58;nan
6349;BME280;3207;42.648;23.406;2023-10-19T15:44:52;98454.19;;;23.55;nan
6349;BME280;3207;42.648;23.406;2023-10-19T15:47:18;98447.69;;;23.51;nan
6349;BME280;3207;42.648;23.406;2023-10-19T15:52:17;98437.09;;;23.45;nan
6349;BME280;3207;42.648;23.406;2023-10-19T15:54:45;98442.91;;;23.42;nan
6349;BME280;3207;42.648;23.406;2023-10-19T15:57:11;98442.56;;;23.38;nan
6349;BME280;3207;42.648;23.406;2023-10-19T16:02:06;98437.81;;;23.28;nan
6349;BME280;3207;42.648;23.406;2023-10-19T16:04:33;98470.72;;;23.22;nan
6349;BME280;3207;42.648;23.406;2023-10-19T16:07:02;98442.09;;;23.18;nan
6349;BME280;3207;42.648;23.406;2023-10-19T16:09:31;98447.53;;;23.11;nan
6349;BME280;3207;42.648;23.406;2023-10-19T16:11:58;98444.16;;;23.04;nan
6349;BME280;3207;42.648;23.406;2023-10-19T16:19:18;98439.03;;;22.91;nan
6349;BME280;3207;42.648;23.406;2023-10-19T16:21:44;98446.13;;;22.85;nan
6349;BME280;3207;42.648;23.406;2023-10-19T16:24:11;98442.97;;;22.77;nan
6349;BME280;3207;42.648;23.406;2023-10-19T16:26:41;98441.97;;;22.71;nan
6349;BME280;3207;42.648;23.406;2023-10-19T16:29:08;98435.50;;;22.67;nan
6349;BME280;3207;42.648;23.406;2023-10-19T16:31:43;98470.09;;;22.55;nan
6349;BME280;3207;42.648;23.406;2023-10-19T16:34:10;98443.47;;;22.55;nan
6349;BME280;3207;42.648;23.406;2023-10-19T16:36:38;98439.63;;;22.51;nan
6349;BME280;3207;42.648;23.406;2023-10-19T16:39:05;98436.81;;;22.46;nan
6349;BME280;3207;42.648;23.406;2023-10-19T16:41:34;98421.03;;;22.33;nan
6349;BME280;3207;42.648;23.406;2023-10-19T16:46:33;98416.91;;;22.19;nan
6349;BME280;3207;42.648;23.406;2023-10-19T16:49:01;98419.44;;;22.14;nan
6349;BME280;3207;42.648;23.406;2023-10-19T16:51:29;98405.56;;;22.12;nan
6349;BME280;3207;42.648;23.406;2023-10-19T16:53:56;98398.53;;;21.99;nan
6349;BME280;3207;42.648;23.406;2023-10-19T16:56:23;98405.41;;;21.88;nan
6349;BME280;3207;42.648;23.406;2023-10-19T16:58:50;98409.63;;;21.78;nan
6349;BME280;3207;42.648;23.406;2023-10-19T17:01:19;98403.78;;;21.69;nan
6349;BME280;3207;42.648;23.406;2023-10-19T17:03:45;98387.69;;;21.64;nan
6349;BME280;3207;42.648;23.406;2023-10-19T17:06:12;98381.19;;;21.60;nan
6349;BME280;3207;42.648;23.406;2023-10-19T17:08:40;98383.69;;;21.55;nan
6349;BME280;3207;42.648;23.406;2023-10-19T17:13:35;98387.81;;;21.51;nan
6349;BME280;3207;42.648;23.406;2023-10-19T17:16:03;98387.81;;;21.51;nan
6349;BME280;3207;42.648;23.406;2023-10-19T17:18:32;98384.13;;;21.52;nan
6349;BME280;3207;42.648;23.406;2023-10-19T17:21:01;98380.53;;;21.46;nan
6349;BME280;3207;42.648;23.406;2023-10-19T17:23:28;98415.72;;;21.42;nan
6349;BME280;3207;42.648;23.406;2023-10-19T17:28:22;98383.09;;;21.35;nan
6349;BME280;3207;42.648;23.406;2023-10-19T17:30:50;98390.91;;;21.30;nan
6349;BME280;3207;42.648;23.406;2023-10-19T17:33:17;98394.63;;;21.29;nan
6349;BME280;3207;42.648;23.406;2023-10-19T17:35:45;98384.84;;;21.23;nan
6349;BME280;3207;42.648;23.406;2023-10-19T17:38:13;98379.63;;;21.09;nan
6349;BME280;3207;42.648;23.406;2023-10-19T17:43:07;98369.44;;;21.06;nan
6349;BME280;3207;42.648;23.406;2023-10-19T17:45:35;98382.94;;;21.05;nan
6349;BME280;3207;42.648;23.406;2023-10-19T17:48:02;98383.38;;;21.02;nan
6349;BME280;3207;42.648;23.406;2023-10-19T17:50:29;98372.38;;;20.98;nan
6349;BME280;3207;42.648;23.406;2023-10-19T17:52:58;98371.19;;;20.94;nan
6349;BME280;3207;42.648;23.406;2023-10-19T17:55:25;98378.56;;;20.92;nan
6349;BME280;3207;42.648;23.406;2023-10-19T18:07:40;98374.75;;;20.57;nan
6349;BME280;3207;42.648;23.406;2023-10-19T18:12:37;98410.25;;;20.62;nan
6349;BME280;3207;42.648;23.406;2023-10-19T18:22:27;98353.34;;;20.20;nan
6349;BME280;3207;42.648;23.406;2023-10-19T18:24:54;98368.34;;;20.39;nan
6349;BME280;3207;42.648;23.406;2023-10-19T18:56:49;98355.97;;;19.89;nan
6349;BME280;3207;42.648;23.406;2023-10-19T19:04:11;98346.66;;;19.73;nan
6349;BME280;3207;42.648;23.406;2023-10-19T19:23:46;98336.25;;;19.71;nan
6349;BME280;3207;42.648;23.406;2023-10-19T19:28:39;98358.88;;;19.81;nan
6349;BME280;3207;42.648;23.406;2023-10-19T19:33:39;98353.94;;;19.91;nan
6349;BME280;3207;42.648;23.406;2023-10-19T19:43:26;98358.31;;;20.03;nan
6349;BME280;3207;42.648;23.406;2023-10-19T20:13:04;98344.19;;;19.78;nan
6349;BME280;3207;42.648;23.406;2023-10-19T20:20:25;98338.44;;;19.81;nan
6349;BME280;3207;42.648;23.406;2023-10-19T20:25:23;98349.44;;;19.85;nan
6349;BME280;3207;42.648;23.406;2023-10-19T20:30:18;98351.09;;;19.86;nan
6349;BME280;3207;42.648;23.406;2023-10-19T20:52:23;98322.22;;;19.64;nan
6349;BME280;3207;42.648;23.406;2023-10-19T20:59:43;98295.38;;;19.41;nan
6349;BME280;3207;42.648;23.406;2023-10-19T21:11:58;98289.09;;;19.29;nan
6349;BME280;3207;42.648;23.406;2023-10-19T21:14:25;98289.28;;;19.34;nan
6349;BME280;3207;42.648;23.406;2023-10-19T21:26:40;98271.72;;;19.39;nan
6349;BME280;3207;42.648;23.406;2023-10-19T21:29:07;98250.56;;;19.33;nan
6349;BME280;3207;42.648;23.406;2023-10-19T21:36:28;98258.25;;;19.41;nan
6349;BME280;3207;42.648;23.406;2023-10-19T21:58:34;98248.41;;;19.17;nan
6349;BME280;3207;42.648;23.406;2023-10-19T22:20:40;98239.56;;;19.36;nan
6349;BME280;3207;42.648;23.406;2023-10-19T22:25:34;98223.66;;;19.36;nan
6349;BME280;3207;42.648;23.406;2023-10-19T22:42:43;98246.44;;;19.50;nan
6349;BME280;3207;42.648;23.406;2023-10-19T22:47:41;98215.84;;;19.48;nan
6349;BME280;3207;42.648;23.406;2023-10-19T22:50:08;98217.28;;;19.50;nan
6349;BME280;3207;42.648;23.406;2023-10-19T23:14:40;98243.38;;;19.53;nan
6349;BME280;3207;42.648;23.406;2023-10-19T23:24:39;98253.75;;;19.55;nan
6349;BME280;3207;42.648;23.406;2023-10-19T23:37:03;98215.84;;;19.54;nan
6349;BME280;3207;42.648;23.406;2023-10-19T23:44:27;98227.25;;;19.55;nan
